sensor_id;sensor_type;location;lat;lon;timestamp;P1;durP1;ratioP1;P2;durP2;ratioP2
78901;SDS011;70441;44.758;37.686;2023-07-29T00:00:27;6.78;;;1.85;;
78901;SDS011;70441;44.758;37.686;2023-07-29T00:01:34;6.85;;;1.48;;
78901;SDS011;70441;44.758;37.686;2023-07-29T00:02:36;5.00;;;1.60;;
78901;SDS011;70441;44.758;37.686;2023-07-29T00:03:38;5.85;;;1.73;;
78901;SDS011;70441;44.758;37.686;2023-07-29T00:04:40;7.32;;;1.98;;
78901;SDS011;70441;44.758;37.686;2023-07-29T00:05:41;6.07;;;1.70;;
78901;SDS011;70441;44.758;37.686;2023-07-29T00:06:43;7.63;;;1.83;;
78901;SDS011;70441;44.758;37.686;2023-07-29T00:07:45;5.30;;;1.60;;
78901;SDS011;70441;44.758;37.686;2023-07-29T00:08:46;4.18;;;1.65;;
78901;SDS011;70441;44.758;37.686;2023-07-29T00:09:48;4.75;;;1.83;;
78901;SDS011;70441;44.758;37.686;2023-07-29T00:10:51;4.32;;;1.65;;
78901;SDS011;70441;44.758;37.686;2023-07-29T00:11:52;5.18;;;1.73;;
78901;SDS011;70441;44.758;37.686;2023-07-29T00:12:54;9.05;;;1.70;;
78901;SDS011;70441;44.758;37.686;2023-07-29T00:13:55;6.93;;;1.70;;
78901;SDS011;70441;44.758;37.686;2023-07-29T00:14:57;4.95;;;1.60;;
78901;SDS011;70441;44.758;37.686;2023-07-29T00:15:59;10.05;;;2.00;;
78901;SDS011;70441;44.758;37.686;2023-07-29T00:17:01;4.93;;;1.63;;
78901;SDS011;70441;44.758;37.686;2023-07-29T00:18:03;4.68;;;1.83;;
78901;SDS011;70441;44.758;37.686;2023-07-29T00:19:05;4.82;;;1.50;;
78901;SDS011;70441;44.758;37.686;2023-07-29T00:20:06;6.63;;;1.80;;
78901;SDS011;70441;44.758;37.686;2023-07-29T00:21:08;6.50;;;1.67;;
78901;SDS011;70441;44.758;37.686;2023-07-29T00:22:10;5.60;;;1.80;;
78901;SDS011;70441;44.758;37.686;2023-07-29T00:23:12;8.15;;;2.00;;
78901;SDS011;70441;44.758;37.686;2023-07-29T00:24:14;4.85;;;1.70;;
78901;SDS011;70441;44.758;37.686;2023-07-29T00:25:16;9.18;;;1.80;;
78901;SDS011;70441;44.758;37.686;2023-07-29T00:26:18;8.40;;;1.80;;
78901;SDS011;70441;44.758;37.686;2023-07-29T00:27:25;6.53;;;1.83;;
78901;SDS011;70441;44.758;37.686;2023-07-29T00:28:26;8.35;;;2.10;;
78901;SDS011;70441;44.758;37.686;2023-07-29T00:29:28;7.47;;;1.88;;
78901;SDS011;70441;44.758;37.686;2023-07-29T00:30:30;5.35;;;1.83;;
78901;SDS011;70441;44.758;37.686;2023-07-29T00:31:31;4.93;;;1.80;;
78901;SDS011;70441;44.758;37.686;2023-07-29T00:32:35;4.93;;;1.80;;
78901;SDS011;70441;44.758;37.686;2023-07-29T00:33:37;7.88;;;1.80;;
78901;SDS011;70441;44.758;37.686;2023-07-29T00:34:38;5.32;;;1.55;;
78901;SDS011;70441;44.758;37.686;2023-07-29T00:35:40;5.70;;;1.58;;
78901;SDS011;70441;44.758;37.686;2023-07-29T00:36:42;5.78;;;1.95;;
78901;SDS011;70441;44.758;37.686;2023-07-29T00:37:43;7.68;;;2.00;;
78901;SDS011;70441;44.758;37.686;2023-07-29T00:38:46;6.40;;;1.83;;
78901;SDS011;70441;44.758;37.686;2023-07-29T00:39:48;8.13;;;1.88;;
78901;SDS011;70441;44.758;37.686;2023-07-29T00:40:49;6.80;;;2.00;;
78901;SDS011;70441;44.758;37.686;2023-07-29T00:41:51;6.10;;;1.85;;
78901;SDS011;70441;44.758;37.686;2023-07-29T00:42:53;8.27;;;2.08;;
78901;SDS011;70441;44.758;37.686;2023-07-29T00:43:54;8.07;;;1.95;;
78901;SDS011;70441;44.758;37.686;2023-07-29T00:44:57;5.93;;;1.50;;
78901;SDS011;70441;44.758;37.686;2023-07-29T00:45:59;8.00;;;1.80;;
78901;SDS011;70441;44.758;37.686;2023-07-29T00:47:06;8.68;;;1.98;;
78901;SDS011;70441;44.758;37.686;2023-07-29T00:48:08;4.20;;;1.40;;
78901;SDS011;70441;44.758;37.686;2023-07-29T00:49:10;5.47;;;1.90;;
78901;SDS011;70441;44.758;37.686;2023-07-29T00:50:12;8.35;;;2.08;;
78901;SDS011;70441;44.758;37.686;2023-07-29T00:51:16;7.25;;;1.80;;
78901;SDS011;70441;44.758;37.686;2023-07-29T00:52:18;8.00;;;1.63;;
78901;SDS011;70441;44.758;37.686;2023-07-29T00:53:20;6.07;;;1.80;;
78901;SDS011;70441;44.758;37.686;2023-07-29T00:54:24;8.55;;;2.00;;
78901;SDS011;70441;44.758;37.686;2023-07-29T00:55:26;4.28;;;1.63;;
78901;SDS011;70441;44.758;37.686;2023-07-29T00:56:29;6.57;;;1.83;;
78901;SDS011;70441;44.758;37.686;2023-07-29T00:58:36;6.32;;;1.63;;
78901;SDS011;70441;44.758;37.686;2023-07-29T00:59:38;6.90;;;2.10;;
78901;SDS011;70441;44.758;37.686;2023-07-29T01:00:39;5.78;;;1.70;;
78901;SDS011;70441;44.758;37.686;2023-07-29T01:01:41;9.30;;;1.70;;
78901;SDS011;70441;44.758;37.686;2023-07-29T01:03:45;8.80;;;1.73;;
78901;SDS011;70441;44.758;37.686;2023-07-29T01:04:51;6.72;;;2.00;;
78901;SDS011;70441;44.758;37.686;2023-07-29T01:07:21;7.40;;;1.58;;
78901;SDS011;70441;44.758;37.686;2023-07-29T01:08:46;5.20;;;1.67;;
78901;SDS011;70441;44.758;37.686;2023-07-29T01:10:05;5.40;;;1.65;;
78901;SDS011;70441;44.758;37.686;2023-07-29T01:13:58;7.15;;;1.90;;
78901;SDS011;70441;44.758;37.686;2023-07-29T01:16:47;8.00;;;1.88;;
78901;SDS011;70441;44.758;37.686;2023-07-29T01:19:41;4.80;;;1.70;;
78901;SDS011;70441;44.758;37.686;2023-07-29T01:20:54;4.57;;;1.75;;
78901;SDS011;70441;44.758;37.686;2023-07-29T01:22:06;7.63;;;1.90;;
78901;SDS011;70441;44.758;37.686;2023-07-29T01:23:09;8.00;;;2.03;;
78901;SDS011;70441;44.758;37.686;2023-07-29T01:24:11;8.32;;;1.98;;
78901;SDS011;70441;44.758;37.686;2023-07-29T01:25:13;5.38;;;2.20;;
78901;SDS011;70441;44.758;37.686;2023-07-29T01:26:15;7.05;;;2.00;;
78901;SDS011;70441;44.758;37.686;2023-07-29T01:27:16;6.22;;;2.13;;
78901;SDS011;70441;44.758;37.686;2023-07-29T01:28:18;7.32;;;1.85;;
78901;SDS011;70441;44.758;37.686;2023-07-29T01:29:20;11.00;;;2.20;;
78901;SDS011;70441;44.758;37.686;2023-07-29T01:30:22;7.85;;;1.90;;
78901;SDS011;70441;44.758;37.686;2023-07-29T01:33:57;5.78;;;2.22;;
78901;SDS011;70441;44.758;37.686;2023-07-29T01:36:11;4.53;;;1.52;;
78901;SDS011;70441;44.758;37.686;2023-07-29T01:37:19;6.82;;;2.00;;
78901;SDS011;70441;44.758;37.686;2023-07-29T01:38:30;10.10;;;2.20;;
78901;SDS011;70441;44.758;37.686;2023-07-29T01:39:40;4.90;;;1.67;;
78901;SDS011;70441;44.758;37.686;2023-07-29T01:40:45;4.15;;;1.70;;
78901;SDS011;70441;44.758;37.686;2023-07-29T01:41:49;7.47;;;1.75;;
78901;SDS011;70441;44.758;37.686;2023-07-29T01:42:52;6.32;;;1.98;;
78901;SDS011;70441;44.758;37.686;2023-07-29T01:43:54;5.72;;;1.80;;
78901;SDS011;70441;44.758;37.686;2023-07-29T01:44:58;6.68;;;1.80;;
78901;SDS011;70441;44.758;37.686;2023-07-29T01:46:00;5.38;;;1.88;;
78901;SDS011;70441;44.758;37.686;2023-07-29T01:47:02;5.35;;;1.77;;
78901;SDS011;70441;44.758;37.686;2023-07-29T01:48:04;6.28;;;2.05;;
78901;SDS011;70441;44.758;37.686;2023-07-29T01:49:07;7.72;;;2.10;;
78901;SDS011;70441;44.758;37.686;2023-07-29T01:50:09;6.55;;;1.98;;
78901;SDS011;70441;44.758;37.686;2023-07-29T01:51:11;6.82;;;2.05;;
78901;SDS011;70441;44.758;37.686;2023-07-29T01:52:14;6.20;;;1.98;;
78901;SDS011;70441;44.758;37.686;2023-07-29T01:53:15;9.68;;;2.10;;
78901;SDS011;70441;44.758;37.686;2023-07-29T01:54:17;8.10;;;2.30;;
78901;SDS011;70441;44.758;37.686;2023-07-29T01:55:18;7.20;;;2.45;;
78901;SDS011;70441;44.758;37.686;2023-07-29T01:56:20;8.00;;;2.58;;
78901;SDS011;70441;44.758;37.686;2023-07-29T01:57:29;7.63;;;2.50;;
78901;SDS011;70441;44.758;37.686;2023-07-29T01:58:30;9.75;;;2.25;;
78901;SDS011;70441;44.758;37.686;2023-07-29T01:59:32;8.63;;;2.25;;
78901;SDS011;70441;44.758;37.686;2023-07-29T02:00:39;11.60;;;2.60;;
78901;SDS011;70441;44.758;37.686;2023-07-29T02:01:41;10.80;;;2.50;;
78901;SDS011;70441;44.758;37.686;2023-07-29T02:02:44;12.98;;;2.95;;
78901;SDS011;70441;44.758;37.686;2023-07-29T02:03:46;9.43;;;2.70;;
78901;SDS011;70441;44.758;37.686;2023-07-29T02:04:48;6.97;;;2.40;;
78901;SDS011;70441;44.758;37.686;2023-07-29T02:05:52;7.75;;;2.63;;
78901;SDS011;70441;44.758;37.686;2023-07-29T02:06:54;6.75;;;2.38;;
78901;SDS011;70441;44.758;37.686;2023-07-29T02:07:56;9.77;;;2.53;;
78901;SDS011;70441;44.758;37.686;2023-07-29T02:08:58;6.68;;;2.13;;
78901;SDS011;70441;44.758;37.686;2023-07-29T02:09:59;8.13;;;2.30;;
78901;SDS011;70441;44.758;37.686;2023-07-29T02:11:01;10.55;;;2.97;;
78901;SDS011;70441;44.758;37.686;2023-07-29T02:12:03;6.90;;;2.28;;
78901;SDS011;70441;44.758;37.686;2023-07-29T02:13:12;7.78;;;2.22;;
78901;SDS011;70441;44.758;37.686;2023-07-29T02:14:14;7.45;;;2.15;;
78901;SDS011;70441;44.758;37.686;2023-07-29T02:15:16;8.82;;;2.45;;
78901;SDS011;70441;44.758;37.686;2023-07-29T02:16:18;9.15;;;2.40;;
78901;SDS011;70441;44.758;37.686;2023-07-29T02:17:19;9.43;;;2.40;;
78901;SDS011;70441;44.758;37.686;2023-07-29T02:18:23;9.68;;;2.67;;
78901;SDS011;70441;44.758;37.686;2023-07-29T02:19:24;8.70;;;2.08;;
78901;SDS011;70441;44.758;37.686;2023-07-29T02:20:26;9.55;;;2.50;;
78901;SDS011;70441;44.758;37.686;2023-07-29T02:21:28;7.65;;;2.30;;
78901;SDS011;70441;44.758;37.686;2023-07-29T02:22:29;14.77;;;2.50;;
78901;SDS011;70441;44.758;37.686;2023-07-29T02:23:31;9.35;;;2.50;;
78901;SDS011;70441;44.758;37.686;2023-07-29T02:24:33;10.38;;;2.42;;
78901;SDS011;70441;44.758;37.686;2023-07-29T02:25:35;7.35;;;2.60;;
78901;SDS011;70441;44.758;37.686;2023-07-29T02:26:38;11.40;;;2.10;;
78901;SDS011;70441;44.758;37.686;2023-07-29T02:27:41;6.70;;;2.33;;
78901;SDS011;70441;44.758;37.686;2023-07-29T02:28:43;10.20;;;2.33;;
78901;SDS011;70441;44.758;37.686;2023-07-29T02:29:45;10.00;;;3.08;;
78901;SDS011;70441;44.758;37.686;2023-07-29T02:30:46;11.50;;;2.50;;
78901;SDS011;70441;44.758;37.686;2023-07-29T02:31:50;10.07;;;2.75;;
78901;SDS011;70441;44.758;37.686;2023-07-29T02:32:52;6.03;;;2.25;;
78901;SDS011;70441;44.758;37.686;2023-07-29T02:33:54;10.98;;;2.75;;
78901;SDS011;70441;44.758;37.686;2023-07-29T02:35:02;8.75;;;2.50;;
78901;SDS011;70441;44.758;37.686;2023-07-29T02:37:06;8.60;;;2.95;;
78901;SDS011;70441;44.758;37.686;2023-07-29T02:38:07;5.57;;;2.30;;
78901;SDS011;70441;44.758;37.686;2023-07-29T02:39:09;7.95;;;2.40;;
78901;SDS011;70441;44.758;37.686;2023-07-29T02:40:11;5.68;;;2.17;;
78901;SDS011;70441;44.758;37.686;2023-07-29T02:41:13;10.75;;;2.50;;
78901;SDS011;70441;44.758;37.686;2023-07-29T02:42:16;11.00;;;2.88;;
78901;SDS011;70441;44.758;37.686;2023-07-29T02:43:18;9.63;;;2.50;;
78901;SDS011;70441;44.758;37.686;2023-07-29T02:44:19;13.75;;;2.60;;
78901;SDS011;70441;44.758;37.686;2023-07-29T02:45:21;10.82;;;2.58;;
78901;SDS011;70441;44.758;37.686;2023-07-29T02:46:23;10.02;;;2.70;;
78901;SDS011;70441;44.758;37.686;2023-07-29T02:47:24;8.95;;;2.47;;
78901;SDS011;70441;44.758;37.686;2023-07-29T02:48:26;15.98;;;2.83;;
78901;SDS011;70441;44.758;37.686;2023-07-29T02:49:29;7.90;;;2.30;;
78901;SDS011;70441;44.758;37.686;2023-07-29T02:50:31;9.13;;;3.13;;
78901;SDS011;70441;44.758;37.686;2023-07-29T02:51:32;9.82;;;2.33;;
78901;SDS011;70441;44.758;37.686;2023-07-29T02:52:34;9.80;;;2.28;;
78901;SDS011;70441;44.758;37.686;2023-07-29T02:53:36;10.05;;;2.50;;
78901;SDS011;70441;44.758;37.686;2023-07-29T02:54:37;8.40;;;3.03;;
78901;SDS011;70441;44.758;37.686;2023-07-29T02:55:40;10.05;;;2.35;;
78901;SDS011;70441;44.758;37.686;2023-07-29T02:56:42;9.35;;;2.20;;
78901;SDS011;70441;44.758;37.686;2023-07-29T02:57:43;9.48;;;2.17;;
78901;SDS011;70441;44.758;37.686;2023-07-29T02:58:45;7.85;;;2.28;;
78901;SDS011;70441;44.758;37.686;2023-07-29T02:59:47;9.70;;;2.50;;
78901;SDS011;70441;44.758;37.686;2023-07-29T03:00:48;12.63;;;2.22;;
78901;SDS011;70441;44.758;37.686;2023-07-29T03:01:52;7.25;;;2.20;;
78901;SDS011;70441;44.758;37.686;2023-07-29T03:02:54;6.95;;;2.20;;
78901;SDS011;70441;44.758;37.686;2023-07-29T03:03:56;8.70;;;2.30;;
78901;SDS011;70441;44.758;37.686;2023-07-29T03:04:58;10.38;;;2.50;;
78901;SDS011;70441;44.758;37.686;2023-07-29T03:06:03;6.93;;;1.95;;
78901;SDS011;70441;44.758;37.686;2023-07-29T03:07:07;8.77;;;2.50;;
78901;SDS011;70441;44.758;37.686;2023-07-29T03:08:09;11.55;;;3.13;;
78901;SDS011;70441;44.758;37.686;2023-07-29T03:09:10;7.38;;;2.22;;
78901;SDS011;70441;44.758;37.686;2023-07-29T03:10:12;9.55;;;2.33;;
78901;SDS011;70441;44.758;37.686;2023-07-29T03:11:15;10.10;;;2.53;;
78901;SDS011;70441;44.758;37.686;2023-07-29T03:12:17;7.80;;;2.35;;
78901;SDS011;70441;44.758;37.686;2023-07-29T03:13:19;9.68;;;2.20;;
78901;SDS011;70441;44.758;37.686;2023-07-29T03:14:21;8.55;;;2.30;;
78901;SDS011;70441;44.758;37.686;2023-07-29T03:16:26;6.03;;;2.08;;
78901;SDS011;70441;44.758;37.686;2023-07-29T03:17:30;10.35;;;2.10;;
78901;SDS011;70441;44.758;37.686;2023-07-29T03:18:31;7.93;;;2.03;;
78901;SDS011;70441;44.758;37.686;2023-07-29T03:19:33;18.50;;;3.13;;
78901;SDS011;70441;44.758;37.686;2023-07-29T03:20:35;12.75;;;2.80;;
78901;SDS011;70441;44.758;37.686;2023-07-29T03:21:36;12.73;;;2.55;;
78901;SDS011;70441;44.758;37.686;2023-07-29T03:22:38;9.48;;;2.28;;
78901;SDS011;70441;44.758;37.686;2023-07-29T03:23:40;9.23;;;2.33;;
78901;SDS011;70441;44.758;37.686;2023-07-29T03:24:42;8.30;;;2.70;;
78901;SDS011;70441;44.758;37.686;2023-07-29T03:25:44;9.00;;;2.42;;
78901;SDS011;70441;44.758;37.686;2023-07-29T03:26:49;7.47;;;2.20;;
78901;SDS011;70441;44.758;37.686;2023-07-29T03:27:50;11.82;;;2.45;;
78901;SDS011;70441;44.758;37.686;2023-07-29T03:28:52;13.95;;;2.65;;
78901;SDS011;70441;44.758;37.686;2023-07-29T03:29:54;11.00;;;2.45;;
78901;SDS011;70441;44.758;37.686;2023-07-29T03:30:55;19.42;;;3.00;;
78901;SDS011;70441;44.758;37.686;2023-07-29T03:31:57;15.20;;;2.50;;
78901;SDS011;70441;44.758;37.686;2023-07-29T03:32:59;14.13;;;2.67;;
78901;SDS011;70441;44.758;37.686;2023-07-29T03:34:01;6.18;;;2.40;;
78901;SDS011;70441;44.758;37.686;2023-07-29T03:35:03;10.80;;;3.28;;
78901;SDS011;70441;44.758;37.686;2023-07-29T03:36:05;6.97;;;2.50;;
78901;SDS011;70441;44.758;37.686;2023-07-29T03:37:12;7.82;;;2.33;;
78901;SDS011;70441;44.758;37.686;2023-07-29T03:38:14;8.63;;;2.10;;
78901;SDS011;70441;44.758;37.686;2023-07-29T03:39:16;6.05;;;1.90;;
78901;SDS011;70441;44.758;37.686;2023-07-29T03:40:18;8.15;;;2.50;;
78901;SDS011;70441;44.758;37.686;2023-07-29T03:41:19;29.10;;;3.88;;
78901;SDS011;70441;44.758;37.686;2023-07-29T03:42:22;11.40;;;2.30;;
78901;SDS011;70441;44.758;37.686;2023-07-29T03:43:23;6.68;;;1.90;;
78901;SDS011;70441;44.758;37.686;2023-07-29T03:44:25;9.65;;;2.67;;
78901;SDS011;70441;44.758;37.686;2023-07-29T03:45:27;8.27;;;2.30;;
78901;SDS011;70441;44.758;37.686;2023-07-29T03:46:29;9.73;;;2.10;;
78901;SDS011;70441;44.758;37.686;2023-07-29T03:47:30;5.13;;;1.90;;
78901;SDS011;70441;44.758;37.686;2023-07-29T03:48:34;6.95;;;2.00;;
78901;SDS011;70441;44.758;37.686;2023-07-29T03:49:35;14.18;;;3.28;;
78901;SDS011;70441;44.758;37.686;2023-07-29T03:51:39;17.02;;;2.92;;
78901;SDS011;70441;44.758;37.686;2023-07-29T03:52:41;10.75;;;3.70;;
78901;SDS011;70441;44.758;37.686;2023-07-29T03:53:42;10.52;;;2.65;;
78901;SDS011;70441;44.758;37.686;2023-07-29T03:54:44;8.20;;;2.42;;
78901;SDS011;70441;44.758;37.686;2023-07-29T03:55:46;10.65;;;2.72;;
78901;SDS011;70441;44.758;37.686;2023-07-29T03:56:48;7.20;;;2.03;;
78901;SDS011;70441;44.758;37.686;2023-07-29T03:57:51;11.10;;;2.30;;
78901;SDS011;70441;44.758;37.686;2023-07-29T03:58:53;11.23;;;2.40;;
78901;SDS011;70441;44.758;37.686;2023-07-29T03:59:54;6.93;;;1.73;;
78901;SDS011;70441;44.758;37.686;2023-07-29T04:00:56;7.40;;;2.05;;
78901;SDS011;70441;44.758;37.686;2023-07-29T04:01:58;6.10;;;1.90;;
78901;SDS011;70441;44.758;37.686;2023-07-29T04:02:59;7.07;;;1.95;;
78901;SDS011;70441;44.758;37.686;2023-07-29T04:04:01;6.35;;;1.90;;
78901;SDS011;70441;44.758;37.686;2023-07-29T04:05:03;4.97;;;1.77;;
78901;SDS011;70441;44.758;37.686;2023-07-29T04:06:06;8.25;;;2.13;;
78901;SDS011;70441;44.758;37.686;2023-07-29T04:07:08;8.20;;;2.15;;
78901;SDS011;70441;44.758;37.686;2023-07-29T04:08:10;5.85;;;1.58;;
78901;SDS011;70441;44.758;37.686;2023-07-29T04:09:11;6.82;;;1.50;;
78901;SDS011;70441;44.758;37.686;2023-07-29T04:10:14;7.07;;;1.90;;
78901;SDS011;70441;44.758;37.686;2023-07-29T04:11:16;6.20;;;2.25;;
78901;SDS011;70441;44.758;37.686;2023-07-29T04:12:17;5.22;;;1.50;;
78901;SDS011;70441;44.758;37.686;2023-07-29T04:13:22;5.20;;;1.45;;
78901;SDS011;70441;44.758;37.686;2023-07-29T04:14:24;6.57;;;1.80;;
78901;SDS011;70441;44.758;37.686;2023-07-29T04:15:25;6.28;;;1.70;;
78901;SDS011;70441;44.758;37.686;2023-07-29T04:16:27;5.60;;;1.65;;
78901;SDS011;70441;44.758;37.686;2023-07-29T04:17:29;7.30;;;1.80;;
78901;SDS011;70441;44.758;37.686;2023-07-29T04:18:31;6.72;;;1.73;;
78901;SDS011;70441;44.758;37.686;2023-07-29T04:19:33;7.28;;;1.73;;
78901;SDS011;70441;44.758;37.686;2023-07-29T04:20:37;5.60;;;1.77;;
78901;SDS011;70441;44.758;37.686;2023-07-29T04:21:39;6.03;;;2.00;;
78901;SDS011;70441;44.758;37.686;2023-07-29T04:22:41;6.50;;;1.70;;
78901;SDS011;70441;44.758;37.686;2023-07-29T04:23:42;6.95;;;2.10;;
78901;SDS011;70441;44.758;37.686;2023-07-29T04:24:44;7.72;;;1.90;;
78901;SDS011;70441;44.758;37.686;2023-07-29T04:25:45;8.73;;;2.10;;
78901;SDS011;70441;44.758;37.686;2023-07-29T04:26:47;5.90;;;1.88;;
78901;SDS011;70441;44.758;37.686;2023-07-29T04:27:49;6.70;;;1.70;;
78901;SDS011;70441;44.758;37.686;2023-07-29T04:28:50;5.65;;;1.67;;
78901;SDS011;70441;44.758;37.686;2023-07-29T04:29:52;8.27;;;1.85;;
78901;SDS011;70441;44.758;37.686;2023-07-29T04:30:53;7.05;;;1.95;;
78901;SDS011;70441;44.758;37.686;2023-07-29T04:31:56;5.07;;;1.75;;
78901;SDS011;70441;44.758;37.686;2023-07-29T04:32:58;12.77;;;2.95;;
78901;SDS011;70441;44.758;37.686;2023-07-29T04:33:59;6.32;;;1.88;;
78901;SDS011;70441;44.758;37.686;2023-07-29T04:35:01;5.90;;;1.50;;
78901;SDS011;70441;44.758;37.686;2023-07-29T04:36:03;3.92;;;1.55;;
78901;SDS011;70441;44.758;37.686;2023-07-29T04:37:05;4.97;;;1.60;;
78901;SDS011;70441;44.758;37.686;2023-07-29T04:38:07;4.43;;;1.55;;
78901;SDS011;70441;44.758;37.686;2023-07-29T04:39:08;7.45;;;1.63;;
78901;SDS011;70441;44.758;37.686;2023-07-29T04:40:10;4.72;;;1.70;;
78901;SDS011;70441;44.758;37.686;2023-07-29T04:41:12;5.53;;;1.60;;
78901;SDS011;70441;44.758;37.686;2023-07-29T04:42:14;4.82;;;1.40;;
78901;SDS011;70441;44.758;37.686;2023-07-29T04:43:15;3.53;;;1.50;;
78901;SDS011;70441;44.758;37.686;2023-07-29T04:44:17;7.57;;;1.67;;
78901;SDS011;70441;44.758;37.686;2023-07-29T04:45:19;5.22;;;1.70;;
78901;SDS011;70441;44.758;37.686;2023-07-29T04:46:21;5.90;;;1.60;;
78901;SDS011;70441;44.758;37.686;2023-07-29T04:47:23;5.03;;;1.50;;
78901;SDS011;70441;44.758;37.686;2023-07-29T04:48:25;5.63;;;1.70;;
78901;SDS011;70441;44.758;37.686;2023-07-29T04:49:26;8.93;;;1.88;;
78901;SDS011;70441;44.758;37.686;2023-07-29T04:50:28;5.13;;;1.85;;
78901;SDS011;70441;44.758;37.686;2023-07-29T04:51:29;6.00;;;1.65;;
78901;SDS011;70441;44.758;37.686;2023-07-29T04:52:35;5.93;;;1.73;;
78901;SDS011;70441;44.758;37.686;2023-07-29T04:53:37;5.93;;;1.80;;
78901;SDS011;70441;44.758;37.686;2023-07-29T04:55:43;11.15;;;2.50;;
78901;SDS011;70441;44.758;37.686;2023-07-29T04:56:44;4.38;;;1.50;;
78901;SDS011;70441;44.758;37.686;2023-07-29T04:57:46;14.20;;;2.40;;
78901;SDS011;70441;44.758;37.686;2023-07-29T04:58:48;7.53;;;2.08;;
78901;SDS011;70441;44.758;37.686;2023-07-29T04:59:49;5.82;;;1.63;;
78901;SDS011;70441;44.758;37.686;2023-07-29T05:00:56;4.47;;;1.60;;
78901;SDS011;70441;44.758;37.686;2023-07-29T05:01:58;4.85;;;1.55;;
78901;SDS011;70441;44.758;37.686;2023-07-29T05:03:00;6.18;;;1.80;;
78901;SDS011;70441;44.758;37.686;2023-07-29T05:05:04;7.32;;;1.50;;
78901;SDS011;70441;44.758;37.686;2023-07-29T05:06:05;6.35;;;1.92;;
78901;SDS011;70441;44.758;37.686;2023-07-29T05:07:07;6.68;;;1.50;;
78901;SDS011;70441;44.758;37.686;2023-07-29T05:08:09;10.73;;;2.05;;
78901;SDS011;70441;44.758;37.686;2023-07-29T05:09:14;7.13;;;1.73;;
78901;SDS011;70441;44.758;37.686;2023-07-29T05:10:19;10.55;;;2.22;;
78901;SDS011;70441;44.758;37.686;2023-07-29T05:11:21;5.00;;;1.77;;
78901;SDS011;70441;44.758;37.686;2023-07-29T05:12:23;6.50;;;1.40;;
78901;SDS011;70441;44.758;37.686;2023-07-29T05:13:25;5.05;;;1.50;;
78901;SDS011;70441;44.758;37.686;2023-07-29T05:14:26;5.75;;;2.10;;
78901;SDS011;70441;44.758;37.686;2023-07-29T05:15:29;5.43;;;1.65;;
78901;SDS011;70441;44.758;37.686;2023-07-29T05:16:31;7.95;;;2.00;;
78901;SDS011;70441;44.758;37.686;2023-07-29T05:17:34;6.57;;;1.88;;
78901;SDS011;70441;44.758;37.686;2023-07-29T05:18:36;4.78;;;1.40;;
78901;SDS011;70441;44.758;37.686;2023-07-29T05:19:37;6.22;;;1.65;;
78901;SDS011;70441;44.758;37.686;2023-07-29T05:20:39;5.13;;;1.60;;
78901;SDS011;70441;44.758;37.686;2023-07-29T05:21:40;5.07;;;1.50;;
78901;SDS011;70441;44.758;37.686;2023-07-29T05:22:42;9.98;;;2.00;;
78901;SDS011;70441;44.758;37.686;2023-07-29T05:23:43;6.10;;;1.63;;
78901;SDS011;70441;44.758;37.686;2023-07-29T05:24:45;5.13;;;1.55;;
78901;SDS011;70441;44.758;37.686;2023-07-29T05:25:47;6.25;;;1.73;;
78901;SDS011;70441;44.758;37.686;2023-07-29T05:26:48;3.90;;;1.25;;
78901;SDS011;70441;44.758;37.686;2023-07-29T05:27:50;6.18;;;1.40;;
78901;SDS011;70441;44.758;37.686;2023-07-29T05:28:51;7.05;;;1.60;;
78901;SDS011;70441;44.758;37.686;2023-07-29T05:29:53;4.65;;;1.25;;
78901;SDS011;70441;44.758;37.686;2023-07-29T05:30:54;5.63;;;1.52;;
78901;SDS011;70441;44.758;37.686;2023-07-29T05:31:56;5.40;;;1.60;;
78901;SDS011;70441;44.758;37.686;2023-07-29T05:32:58;4.97;;;1.80;;
78901;SDS011;70441;44.758;37.686;2023-07-29T05:33:59;6.40;;;1.73;;
78901;SDS011;70441;44.758;37.686;2023-07-29T05:35:01;3.55;;;1.45;;
78901;SDS011;70441;44.758;37.686;2023-07-29T05:36:03;2.58;;;1.08;;
78901;SDS011;70441;44.758;37.686;2023-07-29T05:37:04;6.28;;;1.60;;
78901;SDS011;70441;44.758;37.686;2023-07-29T05:38:07;6.50;;;1.70;;
78901;SDS011;70441;44.758;37.686;2023-07-29T05:39:09;5.22;;;1.48;;
78901;SDS011;70441;44.758;37.686;2023-07-29T05:40:13;9.52;;;1.50;;
78901;SDS011;70441;44.758;37.686;2023-07-29T05:41:15;4.60;;;1.40;;
78901;SDS011;70441;44.758;37.686;2023-07-29T05:42:16;8.35;;;1.60;;
78901;SDS011;70441;44.758;37.686;2023-07-29T05:43:18;5.78;;;1.45;;
78901;SDS011;70441;44.758;37.686;2023-07-29T05:44:19;4.97;;;1.30;;
78901;SDS011;70441;44.758;37.686;2023-07-29T05:45:21;6.75;;;1.48;;
78901;SDS011;70441;44.758;37.686;2023-07-29T05:46:23;4.00;;;1.33;;
78901;SDS011;70441;44.758;37.686;2023-07-29T05:47:25;5.32;;;1.50;;
78901;SDS011;70441;44.758;37.686;2023-07-29T05:48:27;6.07;;;1.65;;
78901;SDS011;70441;44.758;37.686;2023-07-29T05:49:29;7.20;;;1.60;;
78901;SDS011;70441;44.758;37.686;2023-07-29T05:50:30;5.55;;;1.98;;
78901;SDS011;70441;44.758;37.686;2023-07-29T05:51:32;6.90;;;1.30;;
78901;SDS011;70441;44.758;37.686;2023-07-29T05:52:33;3.35;;;1.13;;
78901;SDS011;70441;44.758;37.686;2023-07-29T05:53:35;4.28;;;1.40;;
78901;SDS011;70441;44.758;37.686;2023-07-29T05:54:37;4.63;;;1.40;;
78901;SDS011;70441;44.758;37.686;2023-07-29T05:55:38;4.70;;;1.30;;
78901;SDS011;70441;44.758;37.686;2023-07-29T05:56:40;3.53;;;1.15;;
78901;SDS011;70441;44.758;37.686;2023-07-29T05:57:44;4.05;;;1.40;;
78901;SDS011;70441;44.758;37.686;2023-07-29T05:58:45;4.00;;;1.10;;
78901;SDS011;70441;44.758;37.686;2023-07-29T05:59:47;5.85;;;1.30;;
78901;SDS011;70441;44.758;37.686;2023-07-29T06:00:48;4.30;;;1.42;;
78901;SDS011;70441;44.758;37.686;2023-07-29T06:01:50;6.05;;;1.30;;
78901;SDS011;70441;44.758;37.686;2023-07-29T06:02:52;5.32;;;1.45;;
78901;SDS011;70441;44.758;37.686;2023-07-29T06:03:56;3.58;;;1.45;;
78901;SDS011;70441;44.758;37.686;2023-07-29T06:04:58;4.63;;;1.67;;
78901;SDS011;70441;44.758;37.686;2023-07-29T06:06:01;5.20;;;1.42;;
78901;SDS011;70441;44.758;37.686;2023-07-29T06:07:03;5.07;;;1.45;;
78901;SDS011;70441;44.758;37.686;2023-07-29T06:08:05;7.15;;;1.85;;
78901;SDS011;70441;44.758;37.686;2023-07-29T06:09:08;9.43;;;1.75;;
78901;SDS011;70441;44.758;37.686;2023-07-29T06:10:13;4.90;;;1.50;;
78901;SDS011;70441;44.758;37.686;2023-07-29T06:11:18;4.05;;;1.60;;
78901;SDS011;70441;44.758;37.686;2023-07-29T06:12:20;9.98;;;1.80;;
78901;SDS011;70441;44.758;37.686;2023-07-29T06:13:22;5.47;;;1.60;;
78901;SDS011;70441;44.758;37.686;2023-07-29T06:14:24;4.97;;;1.77;;
78901;SDS011;70441;44.758;37.686;2023-07-29T06:15:27;3.83;;;1.30;;
78901;SDS011;70441;44.758;37.686;2023-07-29T06:16:29;4.68;;;1.70;;
78901;SDS011;70441;44.758;37.686;2023-07-29T06:17:30;3.50;;;1.33;;
78901;SDS011;70441;44.758;37.686;2023-07-29T06:18:32;7.10;;;1.70;;
78901;SDS011;70441;44.758;37.686;2023-07-29T06:19:34;4.05;;;1.25;;
78901;SDS011;70441;44.758;37.686;2023-07-29T06:21:38;3.70;;;1.27;;
78901;SDS011;70441;44.758;37.686;2023-07-29T06:22:40;3.05;;;1.25;;
78901;SDS011;70441;44.758;37.686;2023-07-29T06:23:43;6.85;;;1.88;;
78901;SDS011;70441;44.758;37.686;2023-07-29T06:24:45;8.57;;;1.70;;
78901;SDS011;70441;44.758;37.686;2023-07-29T06:25:46;4.63;;;1.60;;
78901;SDS011;70441;44.758;37.686;2023-07-29T06:26:48;4.35;;;1.65;;
78901;SDS011;70441;44.758;37.686;2023-07-29T06:27:50;4.88;;;1.30;;
78901;SDS011;70441;44.758;37.686;2023-07-29T06:28:51;4.72;;;1.42;;
78901;SDS011;70441;44.758;37.686;2023-07-29T06:29:53;9.13;;;1.95;;